Time;durP1;ratioP1;P1;durP2;ratioP2;P2;SDS_P1;SDS_P2;PMS_P1;PMS_P2;Temp;Humidity;BMP_temperature;BMP_pressure;BME280_temperature;BME280_humidity;BME280_pressure;Samples;Min_cycle;Max_cycle;Signal;HPM_P1;HPM_P2
2023/07/25 00:00:19;;;;;;;59.37;5.73;;;;;;;;;;5001971;28;20013;-55
2023/07/25 00:02:45;;;;;;;90.63;7.35;;;;;;;;;;5004859;28;20267;-54
2023/07/25 00:05:10;;;;;;;117.03;13.20;;;;;;;;;;5003332;28;20021;-54
2023/07/25 00:07:35;;;;;;;71.60;6.35;;;;;;;;;;5002511;28;20249;-54
2023/07/25 00:10:00;;;;;;;120.77;9.37;;;;;;;;;;5001798;28;20028;-54
2023/07/25 00:12:26;;;;;;;70.73;6.57;;;;;;;;;;5001790;28;20758;-54
2023/07/25 00:14:51;;;;;;;85.70;7.10;;;;;;;;;;5003786;28;20620;-55
2023/07/25 00:17:16;;;;;;;85.63;7.17;;;;;;;;;;5000238;28;20268;-54
2023/07/25 00:19:41;;;;;;;82.10;6.90;;;;;;;;;;5002976;28;20108;-54
2023/07/25 00:22:06;;;;;;;121.27;9.60;;;;;;;;;;5000853;28;20357;-55
2023/07/25 00:24:32;;;;;;;96.88;7.75;;;;;;;;;;5002603;28;20253;-54
2023/07/25 00:26:57;;;;;;;65.13;6.03;;;;;;;;;;5004343;28;20567;-54
2023/07/25 00:29:22;;;;;;;82.25;7.22;;;;;;;;;;5002882;28;20264;-54
2023/07/25 00:31:48;;;;;;;91.27;7.57;;;;;;;;;;5002104;28;20096;-54
2023/07/25 00:34:13;;;;;;;112.55;8.38;;;;;;;;;;5001583;28;20068;-54
2023/07/25 00:36:38;;;;;;;70.72;6.40;;;;;;;;;;5005101;28;20037;-55
2023/07/25 00:39:03;;;;;;;131.67;10.27;;;;;;;;;;5002816;28;20017;-54
2023/07/25 00:41:29;;;;;;;70.47;6.30;;;;;;;;;;5003556;28;20034;-56
2023/07/25 00:43:54;;;;;;;97.40;7.47;;;;;;;;;;5001900;28;20567;-54
2023/07/25 00:46:19;;;;;;;88.33;7.47;;;;;;;;;;5000721;28;20303;-54
2023/07/25 00:48:45;;;;;;;77.00;6.47;;;;;;;;;;5003886;28;20025;-54
2023/07/25 00:51:10;;;;;;;127.60;10.40;;;;;;;;;;5002004;28;20387;-56
2023/07/25 00:53:36;;;;;;;99.95;7.75;;;;;;;;;;5002463;28;20072;-55
2023/07/25 00:56:01;;;;;;;85.70;7.32;;;;;;;;;;5001106;28;20034;-53
2023/07/25 00:58:27;;;;;;;73.90;6.65;;;;;;;;;;5002396;28;20005;-54
2023/07/25 01:01:00;;;;;;;97.60;7.75;;;;;;;;;;5002910;28;20040;-54
2023/07/25 01:03:25;;;;;;;76.53;6.68;;;;;;;;;;5001806;28;20245;-54
2023/07/25 01:05:51;;;;;;;82.17;7.27;;;;;;;;;;5001513;28;20435;-53
2023/07/25 01:08:16;;;;;;;122.75;9.57;;;;;;;;;;5003293;28;20639;-54
2023/07/25 01:10:41;;;;;;;63.37;6.17;;;;;;;;;;5002882;28;20507;-55
2023/07/25 01:13:07;;;;;;;134.55;10.43;;;;;;;;;;5002227;28;20473;-54
2023/07/25 01:15:32;;;;;;;76.03;6.72;;;;;;;;;;5002015;28;20423;-54
2023/07/25 01:17:58;;;;;;;79.93;6.95;;;;;;;;;;5001456;28;20456;-58
2023/07/25 01:20:24;;;;;;;83.22;7.32;;;;;;;;;;5000312;28;20044;-54
2023/07/25 01:22:50;;;;;;;87.97;7.03;;;;;;;;;;5003501;28;20021;-54
2023/07/25 01:25:16;;;;;;;111.43;8.55;;;;;;;;;;5000455;28;20423;-54
2023/07/25 01:27:41;;;;;;;69.78;6.10;;;;;;;;;;5003888;28;20034;-54
2023/07/25 01:30:06;;;;;;;112.33;8.97;;;;;;;;;;5003635;28;20018;-54
2023/07/25 01:32:32;;;;;;;76.28;6.72;;;;;;;;;;5008294;28;20407;-54
2023/07/25 01:34:57;;;;;;;85.43;7.05;;;;;;;;;;5005596;28;20022;-54
2023/07/25 01:37:22;;;;;;;96.88;7.97;;;;;;;;;;5004958;28;20570;-54
2023/07/25 01:39:47;;;;;;;66.73;6.27;;;;;;;;;;5004687;28;20317;-54
2023/07/25 01:42:13;;;;;;;109.60;8.53;;;;;;;;;;5004685;28;20284;-54
2023/07/25 01:44:38;;;;;;;87.78;7.10;;;;;;;;;;5005720;28;20260;-54
2023/07/25 01:47:03;;;;;;;87.22;7.28;;;;;;;;;;5005378;28;20033;-54
2023/07/25 01:49:29;;;;;;;63.33;6.22;;;;;;;;;;5006885;28;20318;-54
2023/07/25 01:51:54;;;;;;;108.17;8.47;;;;;;;;;;5004700;28;20403;-54
2023/07/25 01:54:19;;;;;;;134.60;11.17;;;;;;;;;;5005262;28;20673;-54
2023/07/25 01:56:44;;;;;;;84.35;7.18;;;;;;;;;;5004752;28;20451;-54
2023/07/25 01:59:10;;;;;;;140.47;11.10;;;;;;;;;;5003100;28;20044;-54
2023/07/25 02:01:36;;;;;;;94.60;7.63;;;;;;;;;;5006486;28;20791;-53
2023/07/25 02:04:01;;;;;;;79.13;7.20;;;;;;;;;;5005332;28;20049;-54
2023/07/25 02:06:26;;;;;;;87.43;7.77;;;;;;;;;;5003466;28;20334;-53
2023/07/25 02:08:51;;;;;;;83.97;7.07;;;;;;;;;;5005767;28;20025;-54
2023/07/25 02:11:16;;;;;;;117.30;9.77;;;;;;;;;;5004379;28;20303;-54
2023/07/25 02:13:42;;;;;;;80.90;7.27;;;;;;;;;;5006191;28;20075;-53
2023/07/25 02:16:07;;;;;;;91.60;7.87;;;;;;;;;;5003769;28;20038;-53
2023/07/25 02:18:32;;;;;;;78.20;6.77;;;;;;;;;;5004682;28;20022;-54
2023/07/25 02:20:59;;;;;;;93.43;8.03;;;;;;;;;;5005171;28;20637;-55
2023/07/25 02:23:24;;;;;;;92.30;7.45;;;;;;;;;;5004143;28;20185;-54
2023/07/25 02:25:49;;;;;;;67.30;6.03;;;;;;;;;;5002860;28;20060;-54
2023/07/25 02:28:14;;;;;;;155.40;11.70;;;;;;;;;;5004054;28;20260;-54
2023/07/25 02:30:40;;;;;;;76.35;6.78;;;;;;;;;;5003389;28;20037;-54
2023/07/25 02:33:05;;;;;;;88.33;6.90;;;;;;;;;;5004815;28;20049;-53
2023/07/25 02:35:31;;;;;;;91.15;6.68;;;;;;;;;;5004841;28;20257;-55
2023/07/25 02:37:56;;;;;;;80.78;6.68;;;;;;;;;;5004359;28;20053;-54
2023/07/25 02:40:21;;;;;;;140.63;10.85;;;;;;;;;;5002396;28;20028;-54
2023/07/25 02:42:46;;;;;;;93.70;7.27;;;;;;;;;;5004900;28;20033;-54
2023/07/25 02:45:12;;;;;;;121.97;9.90;;;;;;;;;;5002240;28;20350;-54
2023/07/25 02:47:37;;;;;;;75.82;6.65;;;;;;;;;;5005376;28;20083;-54
2023/07/25 02:50:02;;;;;;;86.15;7.30;;;;;;;;;;5004829;28;20436;-54
2023/07/25 03:07:22;;;;;;;137.63;11.20;;;;;;;;;;5002178;28;20125;-54
2023/07/25 03:09:47;;;;;;;100.43;7.90;;;;;;;;;;5002801;28;20021;-54
2023/07/25 03:12:13;;;;;;;102.43;8.05;;;;;;;;;;5002468;28;20272;-54
2023/07/25 03:14:38;;;;;;;78.28;6.47;;;;;;;;;;5003220;28;20464;-54
2023/07/25 03:17:03;;;;;;;79.33;6.77;;;;;;;;;;5003432;28;20060;-54
2023/07/25 03:19:28;;;;;;;82.35;6.85;;;;;;;;;;5003676;28;20581;-54
2023/07/25 03:21:54;;;;;;;90.33;7.57;;;;;;;;;;5004344;28;20076;-54
2023/07/25 03:24:19;;;;;;;156.83;11.73;;;;;;;;;;5002103;28;20264;-54
2023/07/25 03:26:44;;;;;;;66.35;6.53;;;;;;;;;;5003514;28;20754;-55
2023/07/25 03:29:09;;;;;;;58.60;5.97;;;;;;;;;;5001732;28;20067;-54
2023/07/25 03:31:35;;;;;;;112.87;8.83;;;;;;;;;;5003843;28;20048;-53
2023/07/25 03:34:00;;;;;;;85.20;7.27;;;;;;;;;;5004258;28;20358;-54
2023/07/25 03:36:25;;;;;;;140.93;10.70;;;;;;;;;;5002296;28;20308;-54
2023/07/25 03:38:51;;;;;;;102.80;7.70;;;;;;;;;;5002766;28;20897;-54
2023/07/25 03:41:16;;;;;;;124.97;9.88;;;;;;;;;;5001498;28;20297;-54
2023/07/25 03:43:41;;;;;;;79.53;6.83;;;;;;;;;;5003948;28;20524;-54
2023/07/25 03:46:06;;;;;;;76.17;7.07;;;;;;;;;;5004060;28;21193;-54
2023/07/25 03:48:32;;;;;;;71.70;6.37;;;;;;;;;;5002338;28;20517;-54
2023/07/25 03:50:57;;;;;;;89.88;7.45;;;;;;;;;;5002771;28;20276;-54
2023/07/25 03:53:22;;;;;;;162.93;12.55;;;;;;;;;;5001928;28;20025;-56
2023/07/25 03:55:47;;;;;;;90.95;7.30;;;;;;;;;;5003763;28;20058;-54
2023/07/25 03:58:13;;;;;;;98.43;8.27;;;;;;;;;;5002957;28;20022;-54
2023/07/25 04:00:38;;;;;;;77.57;6.90;;;;;;;;;;5002651;28;20360;-54
2023/07/25 04:03:03;;;;;;;92.43;7.65;;;;;;;;;;5005869;28;20469;-55
2023/07/25 04:05:28;;;;;;;141.07;11.50;;;;;;;;;;5002310;28;20133;-54
2023/07/25 04:07:54;;;;;;;94.27;7.50;;;;;;;;;;5001860;28;20747;-54
2023/07/25 04:10:19;;;;;;;126.37;9.30;;;;;;;;;;5000881;28;20269;-54
2023/07/25 04:12:44;;;;;;;71.30;6.43;;;;;;;;;;5005406;28;20322;-54
2023/07/25 04:15:10;;;;;;;88.32;7.55;;;;;;;;;;5002763;28;20595;-54
2023/07/25 04:17:35;;;;;;;92.60;7.78;;;;;;;;;;5001994;28;20034;-54
2023/07/25 04:20:01;;;;;;;81.77;7.03;;;;;;;;;;5001315;28;20394;-54
2023/07/25 04:22:26;;;;;;;112.37;8.93;;;;;;;;;;5001621;28;20392;-55
2023/07/25 04:24:51;;;;;;;94.45;7.57;;;;;;;;;;5001932;28;20362;-54
2023/07/25 04:27:16;;;;;;;134.17;9.93;;;;;;;;;;4999631;28;20495;-54
2023/07/25 04:29:41;;;;;;;75.63;6.70;;;;;;;;;;5002183;28;20010;-54
2023/07/25 04:32:07;;;;;;;102.97;7.93;;;;;;;;;;5001465;28;20408;-56
2023/07/25 04:34:32;;;;;;;81.80;7.55;;;;;;;;;;5001098;28;20260;-56
2023/07/25 04:36:58;;;;;;;94.00;7.90;;;;;;;;;;5001489;28;20037;-57
2023/07/25 04:39:23;;;;;;;144.50;10.93;;;;;;;;;;5000307;28;20045;-56
2023/07/25 04:41:48;;;;;;;86.13;7.70;;;;;;;;;;5003107;28;20041;-59
2023/07/25 04:44:13;;;;;;;80.43;6.90;;;;;;;;;;5000496;28;20076;-56
2023/07/25 04:46:38;;;;;;;84.80;7.83;;;;;;;;;;5001979;28;20368;-57
2023/07/25 04:49:05;;;;;;;93.93;7.43;;;;;;;;;;5004132;28;20283;-57
2023/07/25 04:51:30;;;;;;;122.30;9.13;;;;;;;;;;5000518;28;20303;-57
2023/07/25 04:53:56;;;;;;;104.80;8.15;;;;;;;;;;5003955;28;20021;-56
2023/07/25 04:56:21;;;;;;;120.13;9.03;;;;;;;;;;5000864;28;20064;-57
2023/07/25 04:58:46;;;;;;;91.93;7.27;;;;;;;;;;5001837;28;20276;-57
2023/07/25 05:01:12;;;;;;;85.25;7.55;;;;;;;;;;5003044;28;20265;-57
2023/07/25 05:03:37;;;;;;;81.68;7.15;;;;;;;;;;5001189;28;20021;-57
2023/07/25 05:06:02;;;;;;;84.78;7.07;;;;;;;;;;5005487;28;20026;-57
2023/07/25 05:08:28;;;;;;;131.50;9.70;;;;;;;;;;5005989;28;20014;-56
2023/07/25 05:10:53;;;;;;;88.25;7.18;;;;;;;;;;5006699;28;20761;-57
2023/07/25 05:13:19;;;;;;;123.85;9.80;;;;;;;;;;5002274;28;20083;-56
2023/07/25 05:15:44;;;;;;;93.57;7.75;;;;;;;;;;5005398;28;20439;-57
2023/07/25 05:18:09;;;;;;;76.07;6.80;;;;;;;;;;5006194;28;20029;-59
2023/07/25 05:20:35;;;;;;;103.10;40.60;;;;;;;;;;5005221;28;20029;-57
2023/07/25 05:23:00;;;;;;;96.97;8.57;;;;;;;;;;5005415;28;20017;-57
2023/07/25 05:25:25;;;;;;;314.27;192.93;;;;;;;;;;5004756;28;20331;-56
2023/07/25 05:27:50;;;;;;;74.57;7.28;;;;;;;;;;5005135;28;20256;-57
2023/07/25 05:30:16;;;;;;;79.70;7.00;;;;;;;;;;5005477;28;20021;-57
2023/07/25 05:32:41;;;;;;;78.05;6.70;;;;;;;;;;5005492;28;20148;-57
2023/07/25 05:35:06;;;;;;;94.95;7.72;;;;;;;;;;5006828;28;20097;-57
2023/07/25 05:37:38;;;;;;;115.32;9.43;;;;;;;;;;5004320;28;20037;-57
2023/07/25 05:40:04;;;;;;;86.47;7.82;;;;;;;;;;5004826;28;20021;-55
2023/07/25 05:42:30;;;;;;;114.30;9.55;;;;;;;;;;5003021;28;20162;-56
2023/07/25 05:44:55;;;;;;;96.97;8.57;;;;;;;;;;5004212;28;20364;-56
2023/07/25 05:47:20;;;;;;;117.97;9.98;;;;;;;;;;5003338;28;20096;-59
2023/07/25 05:49:46;;;;;;;84.80;7.87;;;;;;;;;;5004403;28;20021;-57
2023/07/25 05:52:12;;;;;;;97.57;8.10;;;;;;;;;;5004288;28;20864;-57
2023/07/25 05:54:37;;;;;;;87.00;19.92;;;;;;;;;;5004305;28;20260;-56
2023/07/25 05:57:03;;;;;;;78.90;7.30;;;;;;;;;;5004508;28;20034;-57
2023/07/25 05:59:28;;;;;;;297.85;169.30;;;;;;;;;;5003822;28;20021;-56
2023/07/25 06:01:53;;;;;;;103.57;36.10;;;;;;;;;;5005706;28;20038;-57
2023/07/25 06:04:19;;;;;;;67.57;13.67;;;;;;;;;;5005050;28;20607;-56
2023/07/25 06:06:44;;;;;;;94.37;8.20;;;;;;;;;;5005393;28;20838;-57
2023/07/25 06:09:09;;;;;;;66.40;10.17;;;;;;;;;;5006491;28;20694;-56
2023/07/25 06:11:35;;;;;;;129.47;11.10;;;;;;;;;;5004405;28;20308;-57
2023/07/25 06:14:00;;;;;;;98.90;9.27;;;;;;;;;;5006032;28;20268;-57
2023/07/25 06:16:25;;;;;;;268.77;179.82;;;;;;;;;;5003170;28;20547;-54
2023/07/25 06:18:50;;;;;;;240.67;183.80;;;;;;;;;;5004463;28;20033;-54
2023/07/25 06:21:16;;;;;;;97.03;16.00;;;;;;;;;;5005687;28;20273;-54
2023/07/25 06:23:41;;;;;;;85.90;7.93;;;;;;;;;;5002984;28;20674;-54
2023/07/25 06:26:06;;;;;;;132.40;77.27;;;;;;;;;;5004254;28;20508;-54
2023/07/25 06:28:31;;;;;;;162.02;58.13;;;;;;;;;;5003784;28;20372;-54
2023/07/25 06:30:57;;;;;;;73.00;12.10;;;;;;;;;;5005224;28;20230;-54
2023/07/25 06:33:22;;;;;;;123.68;17.85;;;;;;;;;;5003366;28;20272;-54
2023/07/25 06:35:47;;;;;;;96.60;11.90;;;;;;;;;;5002986;28;20284;-54
2023/07/25 06:38:12;;;;;;;108.00;55.40;;;;;;;;;;5004248;28;20280;-54
2023/07/25 06:40:38;;;;;;;123.97;19.37;;;;;;;;;;5002338;28;20284;-54
2023/07/25 06:43:03;;;;;;;108.90;14.43;;;;;;;;;;5003281;28;20249;-54
2023/07/25 06:45:28;;;;;;;205.23;111.90;;;;;;;;;;5002048;28;20269;-56
2023/07/25 06:47:54;;;;;;;83.20;8.65;;;;;;;;;;5003132;28;20017;-55
2023/07/25 06:50:19;;;;;;;98.27;9.47;;;;;;;;;;5003359;28;20105;-56
2023/07/25 06:52:44;;;;;;;87.95;9.45;;;;;;;;;;5005601;28;20260;-55
2023/07/25 06:55:10;;;;;;;82.80;9.15;;;;;;;;;;5002331;28;20542;-58
2023/07/25 06:57:35;;;;;;;130.68;12.93;;;;;;;;;;5003531;28;20394;-58
2023/07/25 07:00:01;;;;;;;84.18;9.57;;;;;;;;;;5003349;28;20531;-56
2023/07/25 07:02:26;;;;;;;108.43;11.63;;;;;;;;;;5002654;28;20117;-56
2023/07/25 07:04:51;;;;;;;66.07;8.38;;;;;;;;;;5004093;28;20029;-55
2023/07/25 07:07:17;;;;;;;64.70;8.00;;;;;;;;;;5005876;28;20634;-55
2023/07/25 07:09:42;;;;;;;56.72;7.97;;;;;;;;;;5007579;28;20347;-55
2023/07/25 07:12:07;;;;;;;72.40;8.85;;;;;;;;;;5005100;28;20033;-56
2023/07/25 07:14:32;;;;;;;96.13;10.57;;;;;;;;;;5007347;28;20032;-55
2023/07/25 07:16:58;;;;;;;63.67;8.17;;;;;;;;;;5006637;28;20925;-56
2023/07/25 07:19:23;;;;;;;80.25;9.00;;;;;;;;;;5005659;28;20593;-55
2023/07/25 07:21:48;;;;;;;72.23;8.43;;;;;;;;;;5007134;28;20029;-55
2023/07/25 07:24:13;;;;;;;60.27;8.50;;;;;;;;;;5006717;28;20752;-55
2023/07/25 07:26:39;;;;;;;119.00;11.50;;;;;;;;;;5006533;28;20323;-55
2023/07/25 07:29:04;;;;;;;65.13;8.50;;;;;;;;;;5004380;28;20233;-56
2023/07/25 07:31:29;;;;;;;111.07;11.43;;;;;;;;;;5005429;28;20679;-55
2023/07/25 07:34:08;;;;;;;79.93;9.00;;;;;;;;;;5006560;28;20128;-56
2023/07/25 07:36:33;;;;;;;112.03;12.05;;;;;;;;;;5007602;28;20276;-55
2023/07/25 07:38:58;;;;;;;75.67;8.63;;;;;;;;;;5007697;28;20066;-59
2023/07/25 07:41:24;;;;;;;108.50;43.10;;;;;;;;;;5006766;28;20026;-56
2023/07/25 07:43:49;;;;;;;68.40;8.20;;;;;;;;;;5007058;28;20022;-57
2023/07/25 07:46:14;;;;;;;73.73;8.07;;;;;;;;;;5009036;28;20033;-56
2023/07/25 07:48:43;;;;;;;131.47;12.33;;;;;;;;;;5006659;28;20276;-54
2023/07/25 07:51:08;;;;;;;59.40;7.90;;;;;;;;;;5006271;28;21100;-56
2023/07/25 07:53:33;;;;;;;123.23;11.83;;;;;;;;;;5005040;28;20022;-57
2023/07/25 07:56:03;;;;;;;86.15;8.80;;;;;;;;;;5006355;28;20677;-56
2023/07/25 07:58:28;;;;;;;84.40;8.57;;;;;;;;;;5006114;28;20033;-56
2023/07/25 08:00:53;;;;;;;60.90;7.60;;;;;;;;;;5006399;28;20053;-56
2023/07/25 08:03:18;;;;;;;94.78;8.82;;;;;;;;;;5007663;28;20148;-56
2023/07/25 08:05:44;;;;;;;117.13;11.37;;;;;;;;;;5003947;28;20627;-56
2023/07/25 08:08:09;;;;;;;55.50;7.68;;;;;;;;;;5007926;28;20531;-56
2023/07/25 08:10:34;;;;;;;117.33;11.17;;;;;;;;;;5005522;28;20030;-55
2023/07/25 08:13:00;;;;;;;51.80;7.23;;;;;;;;;;5006090;28;20669;-55
2023/07/25 08:15:25;;;;;;;68.03;7.63;;;;;;;;;;5005314;28;20260;-54
2023/07/25 08:17:50;;;;;;;92.15;9.07;;;;;;;;;;5003787;28;20341;-54
2023/07/25 08:20:16;;;;;;;61.05;8.38;;;;;;;;;;5005158;28;20013;-55
2023/07/25 08:22:41;;;;;;;97.10;10.48;;;;;;;;;;5004614;28;20009;-54
2023/07/25 08:25:06;;;;;;;62.60;8.27;;;;;;;;;;5005316;28;20187;-54
2023/07/25 08:27:32;;;;;;;115.82;12.10;;;;;;;;;;5002815;28;20261;-55
2023/07/25 08:29:57;;;;;;;66.53;7.80;;;;;;;;;;5006075;28;20022;-55
2023/07/25 08:32:24;;;;;;;75.07;8.63;;;;;;;;;;5005111;28;20529;-55
2023/07/25 08:34:50;;;;;;;67.72;7.57;;;;;;;;;;5003643;28;20021;-54
2023/07/25 08:37:15;;;;;;;64.63;6.72;;;;;;;;;;5004962;28;20435;-55
2023/07/25 08:39:40;;;;;;;122.20;11.65;;;;;;;;;;5004313;28;20137;-55
2023/07/25 08:42:06;;;;;;;71.80;7.40;;;;;;;;;;5006266;28;20030;-55
2023/07/25 08:44:32;;;;;;;84.40;8.73;;;;;;;;;;5006142;28;20681;-55
2023/07/25 08:46:59;;;;;;;68.53;7.32;;;;;;;;;;5004091;28;20552;-55
2023/07/25 08:49:29;;;;;;;71.72;7.15;;;;;;;;;;5007689;28;20024;-54
2023/07/25 08:51:55;;;;;;;65.78;6.85;;;;;;;;;;5005074;28;20119;-54
2023/07/25 08:54:36;;;;;;;80.40;7.57;;;;;;;;;;5006046;28;20108;-55
2023/07/25 08:57:02;;;;;;;57.38;6.60;;;;;;;;;;5013051;28;20152;-55
2023/07/25 08:59:27;;;;;;;71.15;7.15;;;;;;;;;;5005504;28;20037;-55
2023/07/25 09:01:53;;;;;;;60.83;6.82;;;;;;;;;;5003904;28;20048;-55
2023/07/25 09:04:19;;;;;;;58.20;6.30;;;;;;;;;;5004995;28;20044;-55
2023/07/25 09:06:44;;;;;;;124.75;10.57;;;;;;;;;;5005508;28;20034;-55
2023/07/25 09:09:10;;;;;;;58.80;6.05;;;;;;;;;;5006205;28;20518;-55
2023/07/25 09:11:35;;;;;;;106.38;9.27;;;;;;;;;;5004699;28;20124;-55
2023/07/25 09:14:01;;;;;;;76.20;7.67;;;;;;;;;;5005638;28;20024;-55
2023/07/25 09:16:26;;;;;;;70.68;6.30;;;;;;;;;;5004082;28;20265;-54
2023/07/25 09:18:51;;;;;;;70.70;7.30;;;;;;;;;;5003439;28;20139;-56
2023/07/25 09:21:17;;;;;;;70.65;6.70;;;;;;;;;;5008256;28;20853;-54
2023/07/25 09:23:52;;;;;;;122.05;10.27;;;;;;;;;;5004534;28;20018;-57
2023/07/25 09:26:21;;;;;;;60.88;6.00;;;;;;;;;;5006653;28;20034;-56
2023/07/25 09:28:53;;;;;;;121.10;10.10;;;;;;;;;;5005202;28;20022;-55
2023/07/25 09:31:19;;;;;;;48.92;5.25;;;;;;;;;;5004259;28;20037;-55
2023/07/25 09:33:48;;;;;;;94.47;7.95;;;;;;;;;;5004479;28;20018;-55
2023/07/25 09:36:13;;;;;;;64.95;6.28;;;;;;;;;;5004799;28;20034;-55
2023/07/25 09:38:54;;;;;;;125.53;11.07;;;;;;;;;;5003798;28;20072;-55
2023/07/25 09:41:21;;;;;;;75.38;7.35;;;;;;;;;;5006678;28;20554;-55
2023/07/25 09:43:46;;;;;;;115.72;10.98;;;;;;;;;;5003734;28;20018;-57
2023/07/25 09:46:12;;;;;;;70.93;6.88;;;;;;;;;;5006703;28;20029;-55
2023/07/25 09:48:39;;;;;;;93.05;8.98;;;;;;;;;;5005964;28;20026;-55
2023/07/25 09:51:06;;;;;;;65.30;6.45;;;;;;;;;;5007755;28;20216;-55
2023/07/25 09:53:31;;;;;;;73.05;8.02;;;;;;;;;;5008275;28;20072;-55
2023/07/25 09:55:56;;;;;;;67.50;6.43;;;;;;;;;;5006441;28;20042;-55
2023/07/25 09:58:22;;;;;;;56.28;6.00;;;;;;;;;;5009308;28;20842;-55
2023/07/25 10:00:47;;;;;;;103.50;8.53;;;;;;;;;;5009282;28;20037;-55
2023/07/25 10:03:13;;;;;;;73.93;6.68;;;;;;;;;;5008232;28;20299;-55
2023/07/25 10:05:42;;;;;;;81.63;7.33;;;;;;;;;;5007677;28;20045;-55
2023/07/25 10:08:07;;;;;;;61.95;5.75;;;;;;;;;;5006815;28;20650;-56
2023/07/25 10:10:32;;;;;;;55.00;18.20;;;;;;;;;;5009965;28;20037;-55
2023/07/25 10:12:58;;;;;;;76.10;27.07;;;;;;;;;;5006555;28;20030;-56
2023/07/25 10:15:23;;;;;;;92.65;42.03;;;;;;;;;;5007714;28;20044;-56
2023/07/25 10:17:48;;;;;;;125.45;33.47;;;;;;;;;;5006294;28;20038;-56
2023/07/25 10:20:22;;;;;;;118.40;65.47;;;;;;;;;;5009178;28;20120;-55
2023/07/25 10:22:47;;;;;;;143.13;34.13;;;;;;;;;;5008136;28;20260;-55
2023/07/25 10:25:19;;;;;;;225.15;148.07;;;;;;;;;;5007501;28;20444;-54
2023/07/25 10:27:45;;;;;;;167.93;85.18;;;;;;;;;;5007023;28;20013;-55
2023/07/25 10:30:22;;;;;;;110.55;80.25;;;;;;;;;;5008118;28;20092;-55
2023/07/25 10:32:49;;;;;;;242.02;65.75;;;;;;;;;;5006943;28;20009;-55
2023/07/25 10:35:14;;;;;;;230.10;203.35;;;;;;;;;;5005383;28;20399;-55
2023/07/25 10:37:43;;;;;;;155.73;64.43;;;;;;;;;;5007103;28;20474;-55
2023/07/25 10:40:22;;;;;;;173.55;133.52;;;;;;;;;;5009277;28;20248;-55
2023/07/25 10:42:51;;;;;;;215.50;121.90;;;;;;;;;;5008111;28;20049;-55
2023/07/25 10:45:20;;;;;;;132.43;96.85;;;;;;;;;;5007584;28;20017;-56
2023/07/25 10:47:48;;;;;;;250.85;158.48;;;;;;;;;;5006399;28;20412;-56
2023/07/25 10:50:15;;;;;;;154.77;117.18;;;;;;;;;;5007657;28;20021;-56
2023/07/25 10:52:41;;;;;;;265.35;202.20;;;;;;;;;;5006425;28;20065;-58
2023/07/25 10:55:08;;;;;;;191.40;148.88;;;;;;;;;;5007840;28;20218;-55
2023/07/25 10:57:34;;;;;;;151.35;134.07;;;;;;;;;;5007332;28;20613;-55
2023/07/25 10:59:59;;;;;;;201.10;171.63;;;;;;;;;;5005149;28;20032;-55
2023/07/25 11:02:28;;;;;;;186.45;166.18;;;;;;;;;;5007979;28;20300;-55
2023/07/25 11:05:12;;;;;;;183.98;110.18;;;;;;;;;;5006498;28;20029;-56
2023/07/25 11:07:57;;;;;;;131.18;86.03;;;;;;;;;;5007674;28;20030;-54
2023/07/25 11:10:26;;;;;;;139.15;110.00;;;;;;;;;;5006156;28;20026;-56
2023/07/25 11:12:53;;;;;;;218.93;137.20;;;;;;;;;;5007963;28;20018;-56
2023/07/25 11:15:19;;;;;;;162.60;129.30;;;;;;;;;;5006030;28;20101;-56
2023/07/25 11:17:44;;;;;;;251.93;180.77;;;;;;;;;;5005865;28;20380;-55
2023/07/25 11:20:13;;;;;;;83.07;25.25;;;;;;;;;;5007332;28;20071;-56
2023/07/25 11:22:39;;;;;;;167.25;130.98;;;;;;;;;;5007236;28;20022;-57
2023/07/25 11:25:07;;;;;;;87.35;36.22;;;;;;;;;;5007753;28;20072;-55
2023/07/25 11:27:33;;;;;;;231.57;133.98;;;;;;;;;;5007857;28;20511;-56
2023/07/25 11:30:07;;;;;;;188.57;132.05;;;;;;;;;;5004068;28;20034;-56
2023/07/25 11:32:33;;;;;;;187.90;154.23;;;;;;;;;;5005239;28;20485;-55
2023/07/25 11:35:00;;;;;;;199.50;161.40;;;;;;;;;;5006505;28;20144;-55
2023/07/25 11:37:25;;;;;;;228.38;143.40;;;;;;;;;;5006834;28;20029;-56
2023/07/25 11:39:50;;;;;;;207.60;95.37;;;;;;;;;;5005721;28;20030;-55
2023/07/25 11:42:15;;;;;;;143.53;113.60;;;;;;;;;;5005056;28;20287;-55
2023/07/25 11:44:41;;;;;;;120.80;90.83;;;;;;;;;;5005567;28;20446;-55
2023/07/25 11:47:06;;;;;;;288.37;175.57;;;;;;;;;;5006021;28;20269;-56
2023/07/25 11:49:32;;;;;;;273.35;210.30;;;;;;;;;;5008137;28;20277;-56
2023/07/25 11:51:57;;;;;;;255.90;196.38;;;;;;;;;;5005132;28;20126;-55
2023/07/25 11:54:23;;;;;;;271.83;213.18;;;;;;;;;;5006866;28;20136;-55
2023/07/25 11:56:48;;;;;;;210.65;32.45;;;;;;;;;;5005397;28;20041;-55
2023/07/25 11:59:13;;;;;;;176.32;123.72;;;;;;;;;;5005825;28;20425;-55
2023/07/25 12:01:40;;;;;;;432.60;375.33;;;;;;;;;;5002726;28;20104;-56
2023/07/25 12:04:12;;;;;;;153.30;131.37;;;;;;;;;;5003640;28;20069;-56
2023/07/25 12:06:37;;;;;;;244.55;191.48;;;;;;;;;;5005098;28;20080;-55
2023/07/25 12:09:02;;;;;;;217.73;70.80;;;;;;;;;;5007276;28;20087;-56
2023/07/25 12:11:28;;;;;;;244.77;126.35;;;;;;;;;;5005959;28;20122;-55
2023/07/25 12:13:54;;;;;;;165.35;90.25;;;;;;;;;;5005443;28;20395;-55
2023/07/25 12:16:34;;;;;;;184.57;140.77;;;;;;;;;;5006180;28;20038;-55
2023/07/25 12:19:00;;;;;;;206.32;131.88;;;;;;;;;;5004729;28;20061;-56
2023/07/25 12:21:27;;;;;;;200.55;161.93;;;;;;;;;;5004308;28;20045;-55
2023/07/25 12:23:53;;;;;;;301.92;234.65;;;;;;;;;;5005986;28;20026;-55
2023/07/25 12:26:20;;;;;;;149.77;115.05;;;;;;;;;;5005472;28;20028;-55
2023/07/25 12:28:46;;;;;;;251.60;180.45;;;;;;;;;;5005778;28;20392;-55
2023/07/25 12:31:12;;;;;;;189.30;168.77;;;;;;;;;;5004289;28;20040;-55
2023/07/25 12:33:38;;;;;;;322.83;90.15;;;;;;;;;;5005976;28;20022;-55
2023/07/25 12:36:03;;;;;;;111.13;48.65;;;;;;;;;;5003770;28;20069;-55
2023/07/25 12:38:28;;;;;;;92.55;45.13;;;;;;;;;;5005550;28;20136;-55
2023/07/25 12:40:54;;;;;;;194.50;46.40;;;;;;;;;;5005666;28;20029;-56
2023/07/25 12:43:19;;;;;;;114.73;71.30;;;;;;;;;;5006656;28;20389;-56
2023/07/25 12:45:45;;;;;;;200.88;157.77;;;;;;;;;;5005009;28;20333;-56
2023/07/25 12:48:10;;;;;;;170.80;136.05;;;;;;;;;;5007348;28;20028;-55
2023/07/25 12:50:36;;;;;;;144.45;37.25;;;;;;;;;;5007665;28;20696;-56
2023/07/25 12:53:01;;;;;;;305.42;200.60;;;;;;;;;;5007249;28;20029;-56
2023/07/25 12:55:26;;;;;;;205.48;61.15;;;;;;;;;;5005731;28;20095;-57
2023/07/25 12:57:51;;;;;;;253.27;99.30;;;;;;;;;;5005943;28;20056;-56
2023/07/25 13:00:17;;;;;;;178.30;91.13;;;;;;;;;;5005141;28;20272;-55
2023/07/25 13:02:42;;;;;;;167.90;137.55;;;;;;;;;;5007159;28;20386;-56
2023/07/25 13:05:07;;;;;;;167.63;145.80;;;;;;;;;;5004086;28;20108;-56
2023/07/25 13:07:34;;;;;;;134.07;88.53;;;;;;;;;;5005108;28;20261;-56
2023/07/25 13:10:00;;;;;;;180.73;71.38;;;;;;;;;;5005505;28;20028;-56
2023/07/25 13:12:25;;;;;;;127.33;63.60;;;;;;;;;;5003899;28;20442;-56
2023/07/25 13:14:50;;;;;;;197.90;98.20;;;;;;;;;;5004010;28;20064;-56
2023/07/25 13:17:15;;;;;;;210.98;162.15;;;;;;;;;;5005642;28;20103;-55
2023/07/25 13:19:41;;;;;;;90.50;31.88;;;;;;;;;;5006768;28;20034;-55
2023/07/25 13:22:06;;;;;;;156.02;118.28;;;;;;;;;;5003754;28;20029;-56
2023/07/25 13:24:31;;;;;;;91.55;37.92;;;;;;;;;;5006718;28;20101;-58
2023/07/25 13:26:57;;;;;;;194.27;118.70;;;;;;;;;;5006770;28;20446;-56
2023/07/25 13:29:22;;;;;;;110.63;66.20;;;;;;;;;;5010132;28;20028;-55
2023/07/25 13:31:47;;;;;;;116.93;59.10;;;;;;;;;;5006710;28;20037;-55
2023/07/25 13:34:12;;;;;;;167.43;136.13;;;;;;;;;;5009228;28;20024;-55
2023/07/25 13:36:38;;;;;;;176.35;142.85;;;;;;;;;;5010797;28;20770;-56
2023/07/25 13:39:03;;;;;;;252.68;191.15;;;;;;;;;;5009004;28;20025;-56
2023/07/25 13:41:28;;;;;;;199.07;155.48;;;;;;;;;;5008831;28;20026;-57
2023/07/25 13:43:54;;;;;;;156.07;84.40;;;;;;;;;;5007918;28;20037;-55
2023/07/25 13:46:19;;;;;;;131.23;65.07;;;;;;;;;;5009100;28;20025;-57
2023/07/25 13:48:47;;;;;;;252.45;174.93;;;;;;;;;;5008736;28;20634;-56
2023/07/25 13:51:12;;;;;;;156.80;124.70;;;;;;;;;;5010454;28;20116;-55
2023/07/25 13:53:37;;;;;;;201.90;141.73;;;;;;;;;;5007467;28;20399;-56
2023/07/25 13:56:03;;;;;;;208.93;114.93;;;;;;;;;;5009086;28;20819;-56
2023/07/25 13:58:28;;;;;;;179.90;132.50;;;;;;;;;;5006935;28;20467;-56
2023/07/25 14:00:54;;;;;;;224.73;137.43;;;;;;;;;;5006363;28;20085;-55
2023/07/25 14:03:19;;;;;;;254.10;202.70;;;;;;;;;;5006585;28;20684;-56
2023/07/25 14:05:44;;;;;;;85.90;35.77;;;;;;;;;;5009387;28;20034;-55
2023/07/25 14:08:09;;;;;;;167.67;140.93;;;;;;;;;;5005927;28;20091;-55
2023/07/25 14:10:35;;;;;;;163.85;122.82;;;;;;;;;;5005878;28;20037;-55
2023/07/25 14:13:00;;;;;;;192.10;93.35;;;;;;;;;;5005888;28;20134;-55
2023/07/25 14:15:26;;;;;;;151.03;124.27;;;;;;;;;;5007304;28;20018;-56
2023/07/25 14:17:51;;;;;;;122.68;52.25;;;;;;;;;;5006341;28;20253;-56
2023/07/25 14:20:16;;;;;;;183.13;124.72;;;;;;;;;;5008700;28;20052;-57
2023/07/25 14:22:41;;;;;;;162.35;136.35;;;;;;;;;;5008373;28;20037;-56